Time;durP1;ratioP1;P1;durP2;ratioP2;P2;SDS_P1;SDS_P2;PMS_P1;PMS_P2;Temp;Humidity;BMP_temperature;BMP_pressure;BME280_temperature;BME280_humidity;BME280_pressure;Samples;Min_cycle;Max_cycle;Signal;HPM_P1;HPM_P2
2022/05/30 00:00:24;;;;;;;5.50;3.37;;;10.50;1.00;;;;;;5034871;28;20221;-88
2022/05/30 00:02:52;;;;;;;5.57;3.40;;;;;;;;;;5035351;28;20183;-88
2022/05/30 00:05:21;;;;;;;5.30;3.27;;;10.40;1.00;;;;;;5034635;28;20653;-88
2022/05/30 00:07:49;;;;;;;5.50;3.17;;;10.20;1.00;;;;;;5034996;28;20199;-88
2022/05/30 00:10:19;;;;;;;5.53;3.23;;;10.20;1.00;;;;;;5034673;28;20227;-88
2022/05/30 00:12:47;;;;;;;6.30;3.00;;;10.10;1.00;;;;;;5034352;28;20648;-88
2022/05/30 00:15:17;;;;;;;4.30;2.90;;;10.00;1.00;;;;;;5035007;28;20558;-88
2022/05/30 00:17:44;;;;;;;4.27;3.03;;;9.90;1.00;;;;;;5034862;28;20636;-89
2022/05/30 00:20:12;;;;;;;5.90;3.03;;;9.80;1.00;;;;;;5035273;28;20236;-88
2022/05/30 00:22:39;;;;;;;4.13;2.90;;;9.70;1.00;;;;;;5035099;28;20589;-88
2022/05/30 00:25:08;;;;;;;4.73;3.10;;;9.60;1.00;;;;;;5034365;28;20223;-90
2022/05/30 00:27:35;;;;;;;5.13;3.23;;;;;;;;;;5034678;28;20221;-88
2022/05/30 00:30:04;;;;;;;6.50;2.83;;;9.40;1.00;;;;;;5034529;28;20635;-89
2022/05/30 00:32:32;;;;;;;4.40;2.93;;;9.30;1.00;;;;;;5034488;28;20247;-88
2022/05/30 00:34:59;;;;;;;5.80;3.00;;;9.20;1.00;;;;;;5034957;28;20248;-89
2022/05/30 00:37:27;;;;;;;4.93;2.63;;;9.20;1.00;;;;;;5034775;28;20258;-88
2022/05/30 00:39:54;;;;;;;5.43;2.97;;;9.10;1.00;;;;;;5034326;28;20193;-87
2022/05/30 00:42:26;;;;;;;3.33;2.70;;;9.10;1.00;;;;;;5034075;28;20595;-88
2022/05/30 00:44:54;;;;;;;4.40;3.00;;;9.00;1.00;;;;;;5034910;28;20190;-88
2022/05/30 00:47:25;;;;;;;3.60;2.90;;;8.90;1.00;;;;;;5034514;28;20279;-90
2022/05/30 00:49:53;;;;;;;5.30;2.87;;;8.80;1.00;;;;;;5034870;28;20188;-90
2022/05/30 00:52:27;;;;;;;4.03;2.60;;;8.70;1.00;;;;;;5034857;28;20282;-89
2022/05/30 00:54:58;;;;;;;2.90;2.40;;;8.60;1.00;;;;;;5034374;28;20203;-90
2022/05/30 00:57:30;;;;;;;3.90;3.00;;;8.50;1.00;;;;;;5034332;28;20183;-89
2022/05/30 00:59:59;;;;;;;6.87;2.97;;;8.40;1.00;;;;;;5034032;28;20218;-88
2022/05/30 01:02:28;;;;;;;4.33;3.03;;;8.30;1.00;;;;;;5034043;28;20536;-87
2022/05/30 01:07:42;;;;;;;4.37;3.10;;;8.20;1.00;;;;;;5033996;28;20172;-88
2022/05/30 01:10:11;;;;;;;4.23;3.30;;;8.10;1.00;;;;;;5034101;28;20604;-88
2022/05/30 01:12:42;;;;;;;3.80;2.90;;;8.00;1.00;;;;;;5033614;28;20245;-88
2022/05/30 01:15:13;;;;;;;3.30;2.57;;;8.00;1.00;;;;;;5033601;28;20229;-88
2022/05/30 01:17:49;;;;;;;7.43;4.23;;;7.90;1.00;;;;;;5033858;28;20199;-87
2022/05/30 01:20:31;;;;;;;7.80;3.77;;;7.90;1.00;;;;;;5033404;28;20208;-88
2022/05/30 01:23:31;;;;;;;6.20;3.90;;;7.90;3.40;;;;;;5033661;28;20241;-88
2022/05/30 01:26:26;;;;;;;8.37;3.97;;;8.00;99.90;;;;;;5000587;28;20234;-88
2022/05/30 01:28:59;;;;;;;7.27;4.40;;;8.00;99.90;;;;;;5033435;28;20194;-88
2022/05/30 01:31:26;;;;;;;6.80;3.97;;;8.00;98.20;;;;;;5034101;28;20194;-88
2022/05/30 01:33:53;;;;;;;6.80;4.33;;;8.10;25.50;;;;;;5033994;28;20207;-88
2022/05/30 01:36:22;;;;;;;7.30;4.47;;;8.10;97.10;;;;;;5033818;28;20275;-90
2022/05/30 01:38:49;;;;;;;7.97;4.00;;;8.10;99.90;;;;;;5032026;28;20187;-88
2022/05/30 01:41:17;;;;;;;8.30;3.80;;;8.10;99.90;;;;;;5033188;28;20188;-88
2022/05/30 01:43:45;;;;;;;7.47;4.20;;;8.00;99.90;;;;;;5033280;28;20190;-87
2022/05/30 01:46:16;;;;;;;5.50;3.80;;;8.00;99.90;;;;;;5033157;28;20283;-88
2022/05/30 01:48:45;;;;;;;6.90;3.90;;;8.00;99.90;;;;;;5032654;28;20181;-87
2022/05/30 01:51:13;;;;;;;4.97;3.70;;;7.90;91.70;;;;;;5033098;28;20277;-87
2022/05/30 01:53:40;;;;;;;6.90;4.10;;;7.90;78.20;;;;;;5033324;28;20248;-88
2022/05/30 01:56:07;;;;;;;5.87;4.03;;;7.90;64.90;;;;;;5032728;28;20211;-88
2022/05/30 01:58:35;;;;;;;6.30;4.03;;;7.80;99.90;;;;;;5032998;28;20303;-88
2022/05/30 02:01:04;;;;;;;8.67;4.57;;;7.70;99.90;;;;;;5032951;28;20510;-86
2022/05/30 02:03:33;;;;;;;8.50;4.33;;;7.70;99.90;;;;;;5032867;28;20609;-87
2022/05/30 02:06:01;;;;;;;9.13;4.60;;;7.70;99.90;;;;;;5032669;28;20190;-87
2022/05/30 02:08:28;;;;;;;7.10;4.57;;;7.60;99.90;;;;;;5032076;28;20260;-87
2022/05/30 02:10:55;;;;;;;7.50;4.13;;;7.60;99.90;;;;;;5032346;28;20639;-88
2022/05/30 02:13:22;;;;;;;7.60;5.00;;;7.50;99.90;;;;;;5032264;28;20638;-87
2022/05/30 02:18:35;;;;;;;7.53;4.07;;;7.40;99.90;;;;;;5032528;28;20181;-88
2022/05/30 02:21:02;;;;;;;8.13;4.30;;;7.40;99.90;;;;;;5032684;28;20663;-88
2022/05/30 02:23:29;;;;;;;9.60;5.10;;;7.30;99.90;;;;;;5032549;28;20244;-88
2022/05/30 02:25:56;;;;;;;9.33;4.83;;;7.30;99.90;;;;;;5032138;28;20222;-88
2022/05/30 02:28:23;;;;;;;35.10;32.53;;;7.20;99.90;;;;;;5032410;28;20623;-87
2022/05/30 02:30:50;;;;;;;380.27;197.67;;;7.20;99.90;;;;;;5032566;28;20237;-88
2022/05/30 02:38:48;;;;;;;582.57;202.33;;;7.20;99.90;;;;;;5032459;28;20193;-90
2022/05/30 02:41:18;;;;;;;573.57;205.27;;;7.20;99.90;;;;;;5032447;28;20244;-90
2022/05/30 02:43:45;;;;;;;588.67;198.00;;;7.30;99.90;;;;;;5032063;28;20202;-87
2022/05/30 02:46:12;;;;;;;586.70;190.30;;;7.30;99.90;;;;;;5032200;28;20212;-88
2022/05/30 02:48:39;;;;;;;582.77;182.13;;;7.30;99.90;;;;;;5032591;28;20196;-88
2022/05/30 02:51:07;;;;;;;578.40;189.40;;;7.30;99.90;;;;;;5032868;28;20217;-89
2022/05/30 02:53:34;;;;;;;585.40;199.10;;;7.30;99.90;;;;;;5032564;28;20238;-88
2022/05/30 02:56:02;;;;;;;590.80;189.63;;;7.30;99.90;;;;;;5034172;28;20247;-90
2022/05/30 02:58:32;;;;;;;584.60;181.43;;;7.30;99.90;;;;;;5040068;28;20198;-91
2022/05/30 03:00:59;;;;;;;464.43;178.87;;;7.30;99.90;;;;;;5045706;28;20255;-89
2022/05/30 03:03:26;;;;;;;541.50;185.07;;;7.30;99.90;;;;;;5032440;28;20198;-88
2022/05/30 03:05:54;;;;;;;542.73;188.70;;;7.30;99.90;;;;;;5032121;28;20562;-88
2022/05/30 03:08:22;;;;;;;584.30;190.33;;;7.30;99.90;;;;;;5032243;28;20276;-89
2022/05/30 03:10:55;;;;;;;584.77;195.90;;;7.30;99.90;;;;;;5047319;28;20173;-94
2022/05/30 03:13:24;;;;;;;369.53;177.77;;;7.30;99.90;;;;;;5020407;28;20183;-90
2022/05/30 03:15:51;;;;;;;263.97;152.77;;;7.30;99.90;;;;;;5019931;28;20571;-90
2022/05/30 03:18:24;;;;;;;254.73;153.57;;;7.30;99.90;;;;;;5023232;28;20179;-91
2022/05/30 03:20:54;;;;;;;244.43;151.67;;;7.40;99.90;;;;;;5021332;28;20180;-90
2022/05/30 03:23:22;;;;;;;273.87;148.13;;;7.50;99.90;;;;;;5020906;28;20540;-90
2022/05/30 03:25:57;;;;;;;403.97;183.63;;;7.50;99.90;;;;;;5019500;28;20202;-89
2022/05/30 03:28:25;;;;;;;422.23;184.27;;;7.60;99.90;;;;;;5020809;28;20186;-92
2022/05/30 03:30:52;;;;;;;459.77;190.03;;;7.70;99.90;;;;;;5024078;28;20204;-94
2022/05/30 03:33:19;;;;;;;481.73;196.37;;;7.80;99.90;;;;;;5044148;28;20720;-93
2022/05/30 03:35:49;;;;;;;479.30;180.97;;;7.80;99.90;;;;;;5054557;28;20222;-94
2022/05/30 03:38:19;;;;;;;513.97;193.67;;;7.90;1.00;;;;;;5056091;28;20214;-93
2022/05/30 03:43:46;;;;;;;245.87;147.87;;;8.10;1.00;;;;;;5148906;23;20229;-94
2022/05/30 03:46:13;;;;;;;293.23;173.53;;;8.30;1.00;;;;;;5026198;28;20185;-93
2022/05/30 03:48:49;;;;;;;284.33;172.47;;;8.40;1.00;;;;;;5030985;28;20190;-94
2022/05/30 03:51:31;;;;;;;351.80;183.40;;;8.70;1.00;;;;;;5037321;28;20201;-95
2022/05/30 03:54:05;;;;;;;374.53;195.67;;;9.40;99.90;;;;;;5024204;28;20227;-92
2022/05/30 03:56:40;;;;;;;326.17;212.27;;;10.40;1.00;;;;;;5036998;28;20229;-92
2022/05/30 03:59:18;;;;;;;351.80;218.70;;;11.50;1.00;;;;;;5036953;28;20216;-93
2022/05/30 04:01:46;;;;;;;240.87;212.67;;;12.70;1.00;;;;;;5036791;28;20218;-94
2022/05/30 04:04:22;;;;;;;265.45;236.75;;;13.90;1.00;;;;;;5036503;28;20182;-92
2022/05/30 04:06:53;;;;;;;277.27;249.50;;;15.10;50.00;;;;;;5031057;28;20196;-93
2022/05/30 04:09:24;;;;;;;321.10;281.42;;;16.30;1.00;;;;;;5040640;28;20096;-94
2022/05/30 04:12:01;;;;;;;299.23;270.90;;;17.40;1.00;;;;;;5037796;28;20174;-95
2022/05/30 04:14:37;;;;;;;;;;;18.40;99.90;;;;;;5436440;23;20336;-94
2022/05/30 04:17:05;;;;;;;328.50;300.30;;;19.20;1.00;;;;;;5023845;28;20346;-92
2022/05/30 04:19:33;;;;;;;409.90;371.75;;;19.90;1.00;;;;;;5023156;28;20184;-91
2022/05/30 04:22:02;;;;;;;477.05;429.80;;;20.50;99.90;;;;;;5015757;28;20201;-92
2022/05/30 04:24:32;;;;;;;520.10;462.65;;;21.00;99.90;;;;;;5019071;28;20199;-92
2022/05/30 04:27:01;;;;;;;546.90;489.35;;;21.60;99.90;;;;;;5015848;28;20197;-92
2022/05/30 04:29:30;;;;;;;569.42;511.73;;;22.20;24.70;;;;;;5019868;28;20603;-92
2022/05/30 04:53:36;;;;;;;859.70;538.90;;;17.00;1.00;;;;;;5244067;23;20180;-93
2022/05/30 04:56:04;;;;;;;772.70;459.70;;;16.60;1.00;;;;;;5035606;28;20220;-89
2022/05/30 04:58:33;;;;;;;929.43;512.47;;;16.30;1.00;;;;;;5032972;28;20259;-88
2022/05/30 05:01:03;;;;;;;864.37;459.70;;;16.10;1.00;;;;;;5032807;28;20202;-89
2022/05/30 05:03:31;;;;;;;770.50;405.40;;;16.00;1.00;;;;;;5032061;28;20568;-90
2022/05/30 05:06:23;;;;;;;318.75;290.95;;;16.40;41.40;;;;;;5034483;28;20618;-91
2022/05/30 05:09:32;;;;;;;105.53;98.05;;;17.20;11.10;;;;;;5056766;28;20161;-92
2022/05/30 05:12:00;;;;;;;28.70;26.27;;;17.70;1.00;;;;;;5044590;28;20560;-90
2022/05/30 05:14:27;;;;;;;37.25;34.28;;;18.40;1.00;;;;;;5032593;28;20194;-89
2022/05/30 05:16:54;;;;;;;92.68;86.13;;;19.50;24.10;;;;;;5034451;28;20206;-92
2022/05/30 05:19:22;;;;;;;17.60;15.90;;;20.80;1.00;;;;;;5034212;28;20133;-92
2022/05/30 05:21:50;;;;;;;;;;;22.20;1.00;;;;;;5034541;28;20600;-92
2022/05/30 05:24:20;;;;;;;9.20;7.68;;;23.40;1.00;;;;;;5034114;28;20202;-91
2022/05/30 05:26:48;;;;;;;;;;;23.80;1.00;;;;;;5034121;28;20194;-92
2022/05/30 05:29:16;;;;;;;11.10;4.70;;;24.00;1.00;;;;;;5034076;28;20063;-93
2022/05/30 05:31:44;;;;;;;;;;;24.70;1.00;;;;;;5034068;28;20049;-93
2022/05/30 05:34:13;;;;;;;;;;;25.10;1.00;;;;;;5034246;28;20497;-91
2022/05/30 05:36:41;;;;;;;;;;;25.60;1.00;;;;;;5033501;28;19921;-92
2022/05/30 05:39:09;;;;;;;;;;;26.00;1.00;;;;;;5034132;28;20009;-94
2022/05/30 05:41:38;;;;;;;;;;;25.80;1.00;;;;;;5033965;28;19959;-93
2022/05/30 05:44:06;;;;;;;26.75;15.63;;;25.50;1.00;;;;;;5033742;28;20435;-90
2022/05/30 05:46:33;;;;;;;37.65;22.70;;;25.40;1.00;;;;;;5033713;28;20213;-90
2022/05/30 05:49:01;;;;;;;41.28;21.25;;;26.10;1.00;;;;;;5033658;28;20152;-93
2022/05/30 05:51:30;;;;;;;15.10;10.50;;;27.20;1.00;;;;;;5033556;28;20558;-92
2022/05/30 05:53:58;;;;;;;18.38;14.20;;;28.30;1.00;;;;;;5033121;28;20229;-93
2022/05/30 05:56:27;;;;;;;17.50;11.15;;;29.20;1.00;;;;;;5043071;28;20171;-92
2022/05/30 05:58:56;;;;;;;104.88;97.25;;;30.00;1.00;;;;;;5038158;28;20280;-92
2022/05/30 06:01:26;;;;;;;716.20;663.05;;;30.90;1.00;;;;;;5032775;28;20216;-91
2022/05/30 06:03:54;;;;;;;916.17;830.42;;;31.70;1.00;;;;;;5032777;28;20194;-92
2022/05/30 06:06:22;;;;;;;940.10;849.40;;;32.50;1.00;;;;;;5032850;28;20110;-91
2022/05/30 06:08:51;;;;;;;945.88;863.70;;;33.40;1.00;;;;;;5032638;28;20204;-94
2022/05/30 06:11:21;;;;;;;968.72;898.03;;;34.10;1.00;;;;;;5033290;28;20231;-92
2022/05/30 06:13:49;;;;;;;963.60;876.65;;;34.60;1.00;;;;;;5033109;28;20194;-93
2022/05/30 06:16:21;;;;;;;424.17;391.65;;;35.20;1.00;;;;;;5033267;28;20294;-93
2022/05/30 06:18:49;;;;;;;75.07;37.30;;;35.60;1.00;;;;;;5033076;28;20548;-92
2022/05/30 06:21:19;;;;;;;31.40;24.40;;;36.20;1.00;;;;;;5033312;28;20193;-93
2022/05/30 06:23:48;;;;;;;1037.88;953.58;;;36.00;1.00;;;;;;5032461;28;20740;-92
2022/05/30 06:26:16;;;;;;;912.97;837.30;;;35.90;1.00;;;;;;5032634;28;20224;-93
2022/05/30 06:28:46;;;;;;;1013.60;935.30;;;36.00;1.00;;;;;;5033172;28;20288;-92
2022/05/30 06:31:19;;;;;;;853.72;791.20;;;36.00;1.00;;;;;;5033781;28;20225;-93
2022/05/30 06:33:50;;;;;;;888.47;822.97;;;36.20;1.00;;;;;;5033303;28;20224;-92
2022/05/30 06:36:22;;;;;;;998.17;914.85;;;36.60;1.00;;;;;;5033174;28;20284;-91
2022/05/30 06:38:52;;;;;;;1023.78;932.40;;;36.50;1.00;;;;;;5033269;28;20231;-90
2022/05/30 06:41:23;;;;;;;1018.60;927.10;;;36.20;1.00;;;;;;5032827;28;20233;-92
2022/05/30 06:43:53;;;;;;;1025.63;933.53;;;35.90;1.00;;;;;;5032806;28;20215;-92
2022/05/30 06:46:22;;;;;;;982.85;903.10;;;36.20;1.00;;;;;;5033386;28;20343;-90
2022/05/30 06:48:56;;;;;;;940.03;865.42;;;36.90;1.00;;;;;;5037065;28;20563;-93
2022/05/30 06:51:26;;;;;;;1030.57;945.88;;;37.60;1.00;;;;;;5053259;28;20204;-92
2022/05/30 06:53:57;;;;;;;1039.45;951.13;;;38.00;1.00;;;;;;5052329;28;20251;-92
2022/05/30 06:56:26;;;;;;;1028.47;938.47;;;37.80;1.00;;;;;;5052361;28;20224;-91
2022/05/30 06:58:55;;;;;;;1050.63;958.35;;;37.10;1.00;;;;;;5052975;28;20208;-92
2022/05/30 07:01:27;;;;;;;1032.18;939.97;;;36.60;1.00;;;;;;5051481;28;20207;-93
2022/05/30 07:03:58;;;;;;;1045.38;952.35;;;36.80;1.00;;;;;;5032649;28;20209;-92
2022/05/30 07:06:29;;;;;;;1029.05;937.08;;;37.10;1.00;;;;;;5032089;28;20243;-91
2022/05/30 07:08:57;;;;;;;1031.80;939.92;;;37.20;1.00;;;;;;5032509;28;20201;-91
2022/05/30 07:11:26;;;;;;;1036.80;945.05;;;37.00;1.00;;;;;;5032299;28;20205;-93
2022/05/30 07:13:55;;;;;;;1022.65;931.38;;;36.70;1.00;;;;;;5032618;28;20201;-91
2022/05/30 07:16:25;;;;;;;1037.85;945.67;;;36.50;1.00;;;;;;5032157;28;20216;-93
2022/05/30 07:18:56;;;;;;;1043.07;950.17;;;36.00;1.00;;;;;;5032515;28;20201;-92
2022/05/30 07:21:25;;;;;;;1045.18;951.95;;;35.40;1.00;;;;;;5032027;28;20655;-94
2022/05/30 07:23:54;;;;;;;1020.15;944.15;;;35.50;1.00;;;;;;5032354;28;20283;-92
2022/05/30 07:26:24;;;;;;;1045.95;954.03;;;35.70;1.00;;;;;;5032253;28;20201;-92
2022/05/30 07:28:52;;;;;;;1034.07;942.33;;;35.60;1.00;;;;;;5032661;28;20212;-94
2022/05/30 07:31:21;;;;;;;1017.17;925.50;;;35.30;1.00;;;;;;5032694;28;20269;-92
2022/05/30 07:33:50;;;;;;;833.45;767.92;;;35.10;1.00;;;;;;5032250;28;20231;-93
2022/05/30 07:36:21;;;;;;;766.92;708.38;;;35.30;1.00;;;;;;5033429;28;20193;-90
2022/05/30 07:38:52;;;;;;;1013.17;923.40;;;35.60;1.00;;;;;;5035880;28;20201;-92
2022/05/30 07:41:21;;;;;;;1003.45;912.95;;;36.00;1.00;;;;;;5038926;28;20193;-91
2022/05/30 07:43:49;;;;;;;698.40;634.55;;;35.90;1.00;;;;;;5042578;28;20223;-90
2022/05/30 07:46:19;;;;;;;664.15;614.05;;;35.70;1.00;;;;;;5035292;28;20220;-91
2022/05/30 07:48:47;;;;;;;967.53;885.28;;;35.50;1.00;;;;;;5035389;28;20572;-90
2022/05/30 07:51:16;;;;;;;987.78;898.40;;;35.60;1.00;;;;;;5035362;28;20208;-89
2022/05/30 07:53:44;;;;;;;984.53;895.25;;;35.40;1.00;;;;;;5034518;28;20236;-91
2022/05/30 07:56:14;;;;;;;988.35;898.42;;;35.20;1.00;;;;;;5047239;28;20212;-89
2022/05/30 07:58:45;;;;;;;989.42;899.22;;;35.00;1.00;;;;;;5061690;28;20204;-92
2022/05/30 08:01:15;;;;;;;980.95;891.22;;;34.60;1.00;;;;;;5057650;28;20258;-90
2022/05/30 08:03:42;;;;;;;960.63;871.90;;;34.10;1.00;;;;;;5055234;28;20212;-88
2022/05/30 08:06:13;;;;;;;648.47;593.92;;;33.80;1.00;;;;;;5055231;28;20200;-89
2022/05/30 08:08:40;;;;;;;3.40;1.63;;;33.70;1.00;;;;;;5055321;28;20196;-91
2022/05/30 08:11:07;;;;;;;9.93;7.20;;;34.00;1.00;;;;;;5055393;28;20215;-91
2022/05/30 08:13:36;;;;;;;2.45;1.40;;;34.60;1.00;;;;;;5054351;28;20200;-91
2022/05/30 08:16:04;;;;;;;2.35;1.33;;;35.00;1.00;;;;;;5015524;28;20197;-91
2022/05/30 08:18:32;;;;;;;2.00;1.15;;;35.00;1.00;;;;;;5033396;28;20201;-88
2022/05/30 08:20:59;;;;;;;4.18;1.85;;;34.40;1.00;;;;;;5034775;28;20284;-91
2022/05/30 08:23:27;;;;;;;3.53;1.90;;;33.30;1.00;;;;;;5034654;28;20185;-90
2022/05/30 08:25:55;;;;;;;3.17;1.40;;;32.00;1.00;;;;;;5035341;28;20194;-90
2022/05/30 08:28:22;;;;;;;;;;;30.60;1.00;;;;;;5035292;28;20083;-89
2022/05/30 08:30:52;;;;;;;1.65;1.20;;;29.30;1.00;;;;;;5034698;28;20195;-89
2022/05/30 08:33:21;;;;;;;373.75;346.70;;;28.20;1.00;;;;;;5035068;28;20201;-89
2022/05/30 08:35:58;;;;;;;269.67;250.40;;;27.70;1.00;;;;;;5034986;28;20195;-89
2022/05/30 08:38:25;;;;;;;240.30;222.95;;;27.50;1.00;;;;;;5034975;28;20666;-91
2022/05/30 08:43:41;;;;;;;261.67;242.70;;;29.00;1.00;;;;;;5034210;28;20548;-90
2022/05/30 08:46:13;;;;;;;81.28;75.53;;;30.20;1.00;;;;;;5034716;28;20615;-91
2022/05/30 08:48:46;;;;;;;87.13;81.32;;;31.20;1.00;;;;;;5033929;28;20585;-88
2022/05/30 08:51:39;;;;;;;2.25;1.40;;;32.10;1.00;;;;;;5034583;28;20567;-90
2022/05/30 08:54:27;;;;;;;3.08;2.13;;;32.30;1.00;;;;;;5034622;28;20688;-90
2022/05/30 08:56:58;;;;;;;6.03;3.10;;;31.80;1.00;;;;;;5047498;28;20200;-90
2022/05/30 08:59:42;;;;;;;159.05;147.98;;;31.90;1.00;;;;;;5054407;28;20197;-91
2022/05/30 09:02:19;;;;;;;169.73;157.68;;;32.50;1.00;;;;;;5053843;28;20663;-92
2022/05/30 09:04:51;;;;;;;166.20;154.43;;;32.60;1.00;;;;;;5038131;28;20659;-89
2022/05/30 09:07:24;;;;;;;435.73;403.38;;;32.60;1.00;;;;;;5033609;28;20713;-91
2022/05/30 09:09:55;;;;;;;559.22;516.67;;;32.80;1.00;;;;;;5033537;28;20667;-91
2022/05/30 09:12:30;;;;;;;481.77;444.35;;;33.10;1.00;;;;;;5034367;28;20275;-89
2022/05/30 09:15:02;;;;;;;560.20;518.83;;;33.30;1.00;;;;;;5033923;28;20196;-92
2022/05/30 09:17:36;;;;;;;702.00;649.55;;;33.10;1.00;;;;;;5033580;28;20205;-90
2022/05/30 09:20:06;;;;;;;1034.13;952.92;;;32.40;1.00;;;;;;5033623;28;20246;-91
2022/05/30 09:22:35;;;;;;;899.35;822.80;;;31.50;1.00;;;;;;5033800;28;20186;-89
2022/05/30 09:27:48;;;;;;;894.67;828.15;;;29.20;1.00;;;;;;5033520;28;20687;-90
2022/05/30 09:30:19;;;;;;;;;;;27.80;1.00;;;;;;5033822;28;20426;-91
2022/05/30 09:32:54;;;;;;;;;;;26.70;1.00;;;;;;5039243;28;19935;-90
2022/05/30 09:35:25;;;;;;;;;;;25.60;1.00;;;;;;5041357;28;20012;-90
2022/05/30 09:38:04;;;;;;;;;;;24.60;1.00;;;;;;5038305;28;20395;-89
2022/05/30 09:40:39;;;;;;;8.48;2.35;;;23.60;1.00;;;;;;5036307;28;20188;-88
2022/05/30 09:43:07;;;;;;;;;;;22.60;1.00;;;;;;5034332;28;20095;-89
2022/05/30 09:45:34;;;;;;;7.70;1.92;;;21.80;1.00;;;;;;5033582;28;20235;-90
2022/05/30 09:48:05;;;;;;;11.63;5.80;;;21.10;1.00;;;;;;5033013;28;20694;-89
2022/05/30 09:50:32;;;;;;;7.57;3.58;;;20.50;1.00;;;;;;5033613;28;20208;-90
2022/05/30 09:52:59;;;;;;;3.63;1.40;;;20.20;1.00;;;;;;5032736;28;20599;-90
2022/05/30 09:55:32;;;;;;;3.05;1.40;;;20.00;1.00;;;;;;5033721;28;20658;-89
2022/05/30 09:58:00;;;;;;;3.05;1.40;;;20.10;1.00;;;;;;5033173;28;20174;-91
2022/05/30 10:00:38;;;;;;;1.98;1.70;;;20.30;1.00;;;;;;5033352;28;20198;-92
2022/05/30 10:03:11;;;;;;;22.02;20.50;;;20.60;1.00;;;;;;5033106;28;20201;-89
2022/05/30 10:05:40;;;;;;;35.28;32.72;;;21.00;1.00;;;;;;5033257;28;20305;-90
2022/05/30 10:08:20;;;;;;;4.22;1.90;;;21.40;1.00;;;;;;5033323;28;20218;-90
2022/05/30 10:10:50;;;;;;;1.95;1.10;;;21.60;1.00;;;;;;5033616;28;20589;-93
2022/05/30 10:13:34;;;;;;;2.33;1.40;;;21.70;1.00;;;;;;5033179;28;20559;-92
2022/05/30 10:16:03;;;;;;;178.90;166.40;;;21.60;1.00;;;;;;5033529;28;20214;-92
2022/05/30 10:18:36;;;;;;;119.32;110.55;;;21.70;1.00;;;;;;5033417;28;20198;-91
2022/05/30 10:21:27;;;;;;;90.80;84.93;;;21.60;1.00;;;;;;5033439;28;20193;-93
2022/05/30 10:30:10;;;;;;;144.85;135.35;;;22.00;1.00;;;;;;5032994;28;20177;-92
2022/05/30 10:32:53;;;;;;;126.60;118.03;;;21.90;1.00;;;;;;5033585;28;20197;-93
2022/05/30 10:35:32;;;;;;;149.60;139.02;;;22.00;1.00;;;;;;5032733;28;20289;-92
2022/05/30 10:38:22;;;;;;;235.30;218.18;;;22.20;1.00;;;;;;5032831;28;20207;-92
2022/05/30 10:41:11;;;;;;;310.63;286.67;;;22.50;1.00;;;;;;5033022;28;20198;-92
2022/05/30 10:43:50;;;;;;;338.05;311.77;;;22.70;1.00;;;;;;5028380;28;20198;-91
2022/05/30 10:46:23;;;;;;;131.20;122.20;;;22.60;1.00;;;;;;5033231;28;20196;-92
2022/05/30 10:48:59;;;;;;;287.02;264.98;;;22.40;1.00;;;;;;5033351;28;20296;-94
2022/05/30 10:51:33;;;;;;;233.68;215.57;;;22.00;1.00;;;;;;5034947;28;20546;-91
2022/05/30 10:54:13;;;;;;;127.28;118.57;;;21.60;1.00;;;;;;5033170;28;20225;-92
2022/05/30 10:56:42;;;;;;;156.52;145.32;;;21.30;1.00;;;;;;5033198;28;20214;-90
2022/05/30 10:59:21;;;;;;;101.22;94.68;;;21.10;1.00;;;;;;5033093;28;20268;-91
2022/05/30 11:01:57;;;;;;;156.43;146.02;;;20.90;1.00;;;;;;5032701;28;20678;-90
2022/05/30 11:04:44;;;;;;;258.58;240.00;;;20.90;1.00;;;;;;5032910;28;20682;-92
2022/05/30 11:07:29;;;;;;;319.02;294.48;;;20.80;1.00;;;;;;5032515;28;20563;-91
2022/05/30 11:10:02;;;;;;;70.65;66.38;;;21.10;1.00;;;;;;5033780;28;20240;-90
2022/05/30 11:12:35;;;;;;;7.72;7.25;;;21.50;1.00;;;;;;5037124;28;20202;-92
2022/05/30 11:15:10;;;;;;;3.80;3.60;;;21.80;1.00;;;;;;5036286;28;20220;-91
2022/05/30 11:17:43;;;;;;;9.75;9.18;;;21.90;1.00;;;;;;5036916;28;20204;-91
2022/05/30 11:20:14;;;;;;;6.68;6.28;;;21.80;1.00;;;;;;5036402;28;20212;-91
2022/05/30 11:22:47;;;;;;;28.17;26.52;;;21.60;1.00;;;;;;5036187;28;20198;-92
2022/05/30 11:34:49;;;;;;;66.40;62.28;;;20.70;1.00;;;;;;5467318;22;20733;-91
2022/05/30 11:37:40;;;;;;;13.55;12.70;;;20.50;1.00;;;;;;4977367;28;20204;-90
2022/05/30 11:40:20;;;;;;;50.83;45.20;;;20.20;1.00;;;;;;4974750;28;20561;-91
2022/05/30 11:42:58;;;;;;;158.00;147.25;;;19.80;1.00;;;;;;4977595;28;20206;-90
2022/05/30 11:45:39;;;;;;;219.48;203.45;;;19.60;1.00;;;;;;4957992;29;20435;-91
2022/05/30 11:48:13;;;;;;;243.35;224.90;;;19.50;1.00;;;;;;4957676;29;20308;-92
2022/05/30 11:50:51;;;;;;;358.63;329.17;;;19.30;1.00;;;;;;4957779;29;20208;-93
2022/05/30 11:53:53;;;;;;;29.10;26.73;;;19.20;1.00;;;;;;4957537;29;20685;-91
2022/05/30 11:56:31;;;;;;;46.10;42.40;;;19.00;1.00;;;;;;4957740;29;20200;-89
2022/05/30 11:59:17;;;;;;;14.27;12.85;;;19.00;1.00;;;;;;4957535;29;20203;-90
2022/05/30 12:01:49;;;;;;;27.73;25.45;;;18.80;1.00;;;;;;4957620;29;20251;-93
2022/05/30 12:04:44;;;;;;;47.72;43.08;;;18.70;1.00;;;;;;4957864;29;20223;-91
2022/05/30 12:07:45;;;;;;;38.45;21.73;;;18.70;1.00;;;;;;4957296;29;20570;-92
2022/05/30 12:10:26;;;;;;;28.08;12.05;;;18.60;1.00;;;;;;4957561;29;20294;-91
2022/05/30 12:13:20;;;;;;;13.48;7.03;;;18.70;1.00;;;;;;4962351;28;20203;-92
2022/05/30 12:16:11;;;;;;;5.80;5.40;;;18.80;1.00;;;;;;4990291;28;20211;-93
2022/05/30 12:24:57;;;;;;;5.65;3.25;;;18.70;1.00;;;;;;4997066;28;20584;-93
2022/05/30 12:27:57;;;;;;;18.50;7.82;;;18.70;1.00;;;;;;4996168;28;20276;-93
2022/05/30 12:30:51;;;;;;;62.88;57.45;;;18.70;1.00;;;;;;4992621;28;20245;-93
2022/05/30 12:33:46;;;;;;;20.10;12.43;;;18.60;1.00;;;;;;4995623;28;20235;-90
2022/05/30 12:36:39;;;;;;;12.98;8.05;;;18.20;1.00;;;;;;4976136;28;20204;-91
2022/05/30 12:39:36;;;;;;;9.68;5.82;;;17.80;1.00;;;;;;4976500;28;20203;-90
2022/05/30 12:42:08;;;;;;;4.65;1.63;;;17.60;1.00;;;;;;4976260;28;20191;-91
2022/05/30 12:44:55;;;;;;;5.85;4.05;;;17.60;1.00;;;;;;4976852;28;20264;-92
2022/05/30 12:47:33;;;;;;;11.38;6.75;;;17.80;1.00;;;;;;4975822;28;20657;-92
2022/05/30 12:50:43;;;;;;;5.97;4.20;;;18.10;1.00;;;;;;4976210;28;20223;-91
2022/05/30 12:53:12;;;;;;;2.33;1.63;;;18.40;1.00;;;;;;4957232;29;20205;-91
2022/05/30 12:55:42;;;;;;;1.60;1.30;;;18.70;1.00;;;;;;4957024;28;20212;-91
2022/05/30 12:58:12;;;;;;;4.82;1.17;;;19.10;1.00;;;;;;4968689;28;20286;-91
2022/05/30 13:01:19;;;;;;;1.40;0.88;;;19.40;1.00;;;;;;4975879;28;20199;-91
2022/05/30 13:04:06;;;;;;;1.20;1.10;;;19.90;1.00;;;;;;4976016;28;20207;-93
2022/05/30 13:06:55;;;;;;;1.65;0.75;;;20.40;1.00;;;;;;4976108;28;20239;-93
2022/05/30 13:09:33;;;;;;;5.63;3.97;;;20.80;1.00;;;;;;4975665;28;20215;-91
2022/05/30 13:12:25;;;;;;;8.27;4.65;;;20.90;1.00;;;;;;4975452;28;20258;-93
2022/05/30 13:15:28;;;;;;;6.80;3.60;;;21.00;1.00;;;;;;4975884;28;20187;-93
2022/05/30 13:18:06;;;;;;;7.38;4.60;;;21.10;1.00;;;;;;4935151;28;20245;-92
2022/05/30 13:20:49;;;;;;;8.32;5.07;;;21.20;1.00;;;;;;4972171;28;20612;-92
2022/05/30 13:23:31;;;;;;;13.02;6.55;;;21.20;1.00;;;;;;4975388;28;20265;-90
2022/05/30 13:26:00;;;;;;;4.47;2.80;;;21.10;1.00;;;;;;4975271;28;20200;-91
2022/05/30 13:28:33;;;;;;;12.45;7.68;;;21.20;1.00;;;;;;4975230;28;20685;-90
2022/05/30 13:31:08;;;;;;;6.85;3.60;;;21.30;1.00;;;;;;4975520;28;20215;-92
2022/05/30 13:33:44;;;;;;;6.07;2.78;;;21.40;1.00;;;;;;4975286;28;20235;-91
2022/05/30 13:36:21;;;;;;;23.20;12.13;;;21.50;1.00;;;;;;4975386;28;20223;-92
2022/05/30 13:38:52;;;;;;;10.15;5.63;;;21.60;1.00;;;;;;4974884;28;20196;-90
2022/05/30 13:41:52;;;;;;;14.38;7.65;;;21.40;1.00;;;;;;4975282;28;20715;-93
2022/05/30 13:44:30;;;;;;;12.20;7.20;;;21.20;1.00;;;;;;4967516;28;20251;-90
2022/05/30 13:47:19;;;;;;;10.13;7.00;;;20.80;1.00;;;;;;4973351;28;20199;-91
2022/05/30 13:50:06;;;;;;;14.65;8.55;;;20.50;1.00;;;;;;4974445;28;20246;-93
2022/05/30 13:52:39;;;;;;;12.65;8.25;;;20.30;1.00;;;;;;4970088;28;20194;-92
2022/05/30 13:55:30;;;;;;;8.93;5.78;;;20.10;1.00;;;;;;4975405;28;20641;-93
2022/05/30 13:58:06;;;;;;;12.20;7.15;;;20.10;1.00;;;;;;4974863;28;20235;-92
2022/05/30 14:00:38;;;;;;;5.93;3.95;;;20.10;1.00;;;;;;4974832;28;20207;-94
2022/05/30 14:03:07;;;;;;;7.32;5.22;;;20.10;1.00;;;;;;4974823;28;20192;-91
2022/05/30 14:05:38;;;;;;;11.95;8.02;;;20.10;1.00;;;;;;4970256;28;20205;-92
2022/05/30 14:08:17;;;;;;;5.07;3.90;;;19.90;1.00;;;;;;4975386;28;20207;-93
2022/05/30 14:10:54;;;;;;;5.65;3.88;;;19.80;1.00;;;;;;4975097;28;20196;-91
2022/05/30 14:13:39;;;;;;;6.10;4.50;;;19.70;1.00;;;;;;4975149;28;20203;-92